createdAt,value
2023-01-20T00:01:15.069Z,98826.23
2023-01-20T00:03:41.805Z,98821.80
2023-01-20T00:06:09.110Z,98821.80
2023-01-20T00:08:36.051Z,98821.36
2023-01-20T00:11:07.076Z,98822.29
2023-01-20T00:13:36.907Z,98825.33
2023-01-20T00:16:07.591Z,98826.09
2023-01-20T00:18:35.134Z,98829.73
2023-01-20T00:21:09.862Z,98826.02
2023-01-20T00:23:36.542Z,98826.58
2023-01-20T00:26:07.232Z,98830.09
2023-01-20T00:28:34.884Z,98838.19
2023-01-20T00:31:21.438Z,98835.20
2023-01-20T00:33:49.032Z,98830.76
2023-01-20T00:36:16.324Z,98833.08
2023-01-20T00:38:43.040Z,98834.72
2023-01-20T00:41:09.918Z,98839.80
2023-01-20T00:43:36.720Z,98840.23
2023-01-20T00:46:03.761Z,98845.66
2023-01-20T00:48:30.572Z,98844.20
2023-01-20T00:50:57.233Z,98849.36
2023-01-20T00:53:23.975Z,98847.48
2023-01-20T00:55:50.612Z,98842.94
2023-01-20T00:58:17.339Z,98842.23
2023-01-20T01:00:46.322Z,98834.73
2023-01-20T01:03:13.038Z,98826.89
2023-01-20T01:05:39.686Z,98823.65
2023-01-20T01:08:06.473Z,98826.83
2023-01-20T01:10:33.159Z,98824.36
2023-01-20T01:13:00.668Z,98825.27
2023-01-20T01:15:27.900Z,98819.19
2023-01-20T01:17:54.938Z,98822.59
2023-01-20T01:20:21.655Z,98828.16
2023-01-20T01:22:48.376Z,98835.71
2023-01-20T01:25:15.375Z,98840.20
2023-01-20T01:27:42.221Z,98837.48
2023-01-20T01:30:09.628Z,98842.77
2023-01-20T01:32:36.307Z,98849.67
2023-01-20T01:35:03.044Z,98849.35
2023-01-20T01:37:29.691Z,98849.74
2023-01-20T01:39:56.385Z,98850.11
2023-01-20T01:42:24.314Z,98847.79
2023-01-20T01:45:17.658Z,98840.46
2023-01-20T01:47:45.007Z,98840.50
2023-01-20T01:50:14.078Z,98838.03
2023-01-20T01:52:41.632Z,98837.23
2023-01-20T01:55:08.760Z,98841.27
2023-01-20T01:57:35.614Z,98843.40
2023-01-20T02:00:03.932Z,98840.59
2023-01-20T02:02:39.979Z,98836.08
2023-01-20T02:05:06.974Z,98840.63
2023-01-20T02:07:33.708Z,98842.79
2023-01-20T02:10:00.548Z,98842.50
2023-01-20T02:12:27.304Z,98838.67
2023-01-20T02:14:54.455Z,98844.10
2023-01-20T02:17:21.089Z,98849.02
2023-01-20T02:20:09.306Z,98848.78
2023-01-20T02:22:37.884Z,98848.34
2023-01-20T02:25:38.340Z,98849.14
2023-01-20T02:28:14.308Z,98851.95
2023-01-20T02:30:44.010Z,98862.80
2023-01-20T02:33:15.591Z,98861.20
2023-01-20T02:35:47.016Z,98865.16
2023-01-20T02:38:29.220Z,98866.06
2023-01-20T02:41:02.233Z,98866.12
2023-01-20T02:43:47.262Z,98875.46
2023-01-20T02:46:32.148Z,98877.86
2023-01-20T02:49:06.030Z,98881.41
2023-01-20T02:51:37.050Z,98880.65
2023-01-20T02:54:05.967Z,98880.23
2023-01-20T02:56:32.643Z,98883.27
2023-01-20T02:59:01.573Z,98886.40
2023-01-20T03:01:32.011Z,98891.48
2023-01-20T03:03:59.723Z,98889.17
2023-01-20T03:06:28.634Z,98878.90
2023-01-20T03:08:56.088Z,98888.80
2023-01-20T03:11:22.760Z,98893.06
2023-01-20T03:14:01.891Z,98901.09
2023-01-20T03:16:28.627Z,98903.68
2023-01-20T03:18:55.412Z,98904.21
2023-01-20T03:21:22.000Z,98907.48
2023-01-20T03:23:53.151Z,98910.78
2023-01-20T03:26:20.937Z,98914.56
2023-01-20T03:28:48.827Z,98923.77
2023-01-20T03:31:21.025Z,98925.91
2023-01-20T03:33:48.802Z,98914.66
2023-01-20T03:36:15.612Z,98917.45
2023-01-20T03:38:42.804Z,98921.48
2023-01-20T03:41:31.221Z,98932.92
2023-01-20T03:44:20.994Z,98931.50
2023-01-20T03:46:52.495Z,98925.80
2023-01-20T03:49:25.345Z,98921.73
2023-01-20T03:52:04.828Z,98917.21
2023-01-20T03:54:34.986Z,98915.90
2023-01-20T03:57:06.531Z,98922.52
2023-01-20T03:59:34.605Z,98926.85
2023-01-20T04:02:05.974Z,98933.17
2023-01-20T04:04:34.270Z,98931.08
2023-01-20T04:07:00.973Z,98925.97
2023-01-20T04:09:29.736Z,98928.61
2023-01-20T04:11:56.466Z,98934.21
2023-01-20T04:14:23.244Z,98947.90
2023-01-20T04:16:53.136Z,98955.63
2023-01-20T04:19:19.800Z,98959.05
2023-01-20T04:21:49.737Z,98965.52
2023-01-20T04:24:45.554Z,98971.08
2023-01-20T04:27:12.238Z,98991.15
2023-01-20T04:29:39.105Z,98996.90
2023-01-20T04:32:06.038Z,98991.80
2023-01-20T04:34:32.774Z,98982.06
2023-01-20T04:36:59.434Z,98984.27
2023-01-20T04:39:26.163Z,98989.56
2023-01-20T04:41:52.893Z,98988.98
2023-01-20T04:44:19.482Z,98989.61
2023-01-20T04:46:47.350Z,98991.97
2023-01-20T04:49:14.528Z,98993.42
2023-01-20T04:51:41.265Z,98994.09
2023-01-20T04:54:08.013Z,98997.02
2023-01-20T04:56:34.639Z,98999.66
2023-01-20T04:59:01.309Z,99010.64
2023-01-20T05:01:28.108Z,99019.56
2023-01-20T05:03:54.850Z,99021.00
2023-01-20T05:06:21.538Z,99027.95
2023-01-20T05:08:48.270Z,99025.42
2023-01-20T05:11:14.971Z,99021.23
2023-01-20T05:13:41.715Z,99017.73
2023-01-20T05:16:08.566Z,99018.15
2023-01-20T05:18:35.617Z,99025.96
2023-01-20T05:21:03.827Z,99036.13
2023-01-20T05:23:30.541Z,99045.67
2023-01-20T05:25:57.225Z,99048.66
2023-01-20T05:28:23.943Z,99049.48
2023-01-20T05:30:51.126Z,99055.38
2023-01-20T05:33:17.993Z,99055.11
2023-01-20T05:35:44.668Z,99052.79
2023-01-20T05:38:11.360Z,99051.54
2023-01-20T05:40:38.136Z,99051.01
2023-01-20T05:43:04.964Z,99048.94
2023-01-20T05:45:32.462Z,99053.71
2023-01-20T05:47:59.814Z,99061.35
2023-01-20T05:50:27.185Z,99072.06
2023-01-20T05:52:53.970Z,99070.56
2023-01-20T05:55:20.727Z,99070.96
2023-01-20T05:57:47.427Z,99067.34
2023-01-20T06:00:14.943Z,99067.59
2023-01-20T06:02:41.859Z,99067.59
2023-01-20T06:05:08.884Z,99065.50
2023-01-20T06:07:35.627Z,99059.98
2023-01-20T06:10:02.657Z,99056.34
2023-01-20T06:12:29.399Z,99070.23
2023-01-20T06:14:56.050Z,99078.13
2023-01-20T06:17:22.782Z,99081.88
2023-01-20T06:19:49.493Z,99093.48
2023-01-20T06:22:16.280Z,99090.82
2023-01-20T06:24:42.937Z,99090.16
2023-01-20T06:27:10.161Z,99088.98
2023-01-20T06:29:36.991Z,99100.13
2023-01-20T06:32:03.967Z,99100.65
2023-01-20T06:34:30.843Z,99102.13
2023-01-20T06:36:57.419Z,99100.60
2023-01-20T06:39:24.121Z,99098.10
2023-01-20T06:41:50.856Z,99100.41
2023-01-20T06:44:18.041Z,99102.50
2023-01-20T06:46:46.751Z,99108.78
2023-01-20T06:49:15.044Z,99114.41
2023-01-20T06:51:41.933Z,99107.59
2023-01-20T06:54:08.739Z,99104.27
2023-01-20T06:56:35.388Z,99112.53
2023-01-20T06:59:02.193Z,99120.20
2023-01-20T07:01:29.324Z,99124.23
2023-01-20T07:03:56.317Z,99129.53
2023-01-20T07:06:22.929Z,99133.54
2023-01-20T07:08:49.723Z,99130.91
2023-01-20T07:11:16.427Z,99133.66
2023-01-20T07:13:43.314Z,99133.13
2023-01-20T07:16:12.556Z,99136.65
2023-01-20T07:18:40.580Z,99145.92
2023-01-20T07:21:07.256Z,99147.29
2023-01-20T07:23:33.968Z,99142.10
2023-01-20T07:26:02.018Z,99134.74
2023-01-20T07:28:29.016Z,99137.92
2023-01-20T07:30:55.776Z,99137.64
2023-01-20T07:33:22.459Z,99133.83
2023-01-20T07:35:53.492Z,99137.48
2023-01-20T07:38:20.313Z,99133.94
2023-01-20T07:40:46.933Z,99132.38
2023-01-20T07:43:13.831Z,99134.84
2023-01-20T07:45:40.628Z,99145.06
2023-01-20T07:48:08.087Z,99146.02
2023-01-20T07:50:35.679Z,99147.55
2023-01-20T07:53:02.718Z,99145.89
2023-01-20T07:55:29.477Z,99161.02
2023-01-20T07:57:56.372Z,99166.67
2023-01-20T08:00:23.118Z,99171.69
2023-01-20T08:02:49.849Z,99175.50
2023-01-20T08:05:16.792Z,99175.20
2023-01-20T08:07:43.876Z,99174.30
2023-01-20T08:10:11.048Z,99177.62
2023-01-20T08:12:37.751Z,99171.36
2023-01-20T08:15:05.070Z,99175.71
2023-01-20T08:17:31.743Z,99176.98
2023-01-20T08:19:58.446Z,99176.45
2023-01-20T08:22:25.597Z,99174.41
2023-01-20T08:24:52.335Z,99176.34
2023-01-20T08:27:19.793Z,99176.48
2023-01-20T08:29:46.623Z,99175.31
2023-01-20T08:32:13.194Z,99167.98
2023-01-20T08:34:39.975Z,99164.08
2023-01-20T08:37:06.589Z,99171.50
2023-01-20T08:39:33.257Z,99177.56
2023-01-20T08:41:59.902Z,99174.14
2023-01-20T08:44:27.357Z,99172.60
2023-01-20T08:46:58.101Z,99171.09
2023-01-20T08:49:25.258Z,99170.09
2023-01-20T08:54:41.125Z,99162.86
2023-01-20T08:57:08.091Z,99162.90
2023-01-20T08:59:34.824Z,99164.58
2023-01-20T09:02:01.635Z,99169.33
2023-01-20T09:04:28.394Z,99169.73
2023-01-20T09:06:55.042Z,99168.80
2023-01-20T09:09:22.279Z,99163.97
2023-01-20T09:11:52.169Z,99167.08
2023-01-20T09:14:19.936Z,99167.36
2023-01-20T09:16:46.722Z,99168.87
2023-01-20T09:19:13.334Z,99166.68
2023-01-20T09:21:40.102Z,99166.65
2023-01-20T09:24:06.809Z,99166.45
2023-01-20T09:26:38.738Z,99162.34
2023-01-20T09:29:10.513Z,99165.64
2023-01-20T09:31:38.798Z,99163.25
2023-01-20T09:34:05.571Z,99169.46
2023-01-20T09:36:32.235Z,99173.65
2023-01-20T09:39:17.756Z,99169.61
2023-01-20T09:42:20.003Z,99169.28
2023-01-20T09:44:49.677Z,99169.34
2023-01-20T09:47:31.009Z,99176.21
2023-01-20T09:50:35.529Z,99182.23
2023-01-20T09:53:15.532Z,99176.96
2023-01-20T09:55:47.285Z,99177.81
2023-01-20T09:58:40.383Z,99178.84
2023-01-20T10:01:34.776Z,99178.27
2023-01-20T10:04:24.813Z,99186.67
2023-01-20T10:06:59.053Z,99192.30
2023-01-20T10:09:42.762Z,99190.67
2023-01-20T10:12:13.032Z,99188.09
2023-01-20T10:14:46.130Z,99182.86
2023-01-20T10:17:32.416Z,99184.59
2023-01-20T10:20:03.854Z,99180.94
2023-01-20T10:22:48.154Z,99173.71
2023-01-20T10:25:25.213Z,99174.33
2023-01-20T10:27:56.812Z,99171.77
2023-01-20T10:30:29.876Z,99171.50
2023-01-20T10:33:05.600Z,99170.45
2023-01-20T10:35:36.076Z,99174.49
2023-01-20T10:38:03.354Z,99178.23
2023-01-20T10:40:43.623Z,99174.65
2023-01-20T10:43:14.888Z,99171.57
2023-01-20T10:46:00.826Z,99168.21
2023-01-20T10:48:46.529Z,99174.80
2023-01-20T10:51:30.847Z,99172.67
2023-01-20T10:54:00.570Z,99172.25
2023-01-20T10:56:41.321Z,99167.10
2023-01-20T10:59:16.580Z,99169.20
2023-01-20T11:01:45.395Z,99171.06
2023-01-20T11:04:17.820Z,99171.94
2023-01-20T11:06:44.553Z,99171.73
2023-01-20T11:09:15.910Z,99177.05
2023-01-20T11:11:42.693Z,99176.88
2023-01-20T11:14:09.284Z,99178.05
2023-01-20T11:16:36.065Z,99187.42
2023-01-20T11:19:03.653Z,99190.48
2023-01-20T11:21:32.387Z,99190.31
2023-01-20T11:23:59.379Z,99191.73
2023-01-20T11:26:28.315Z,99194.48
2023-01-20T11:29:10.298Z,99191.21
2023-01-20T11:31:38.514Z,99190.52
2023-01-20T11:34:20.483Z,99186.64
2023-01-20T11:36:47.367Z,99198.39
2023-01-20T11:39:25.464Z,99199.40
2023-01-20T11:42:09.671Z,99200.95
2023-01-20T11:44:50.460Z,99194.75
2023-01-20T11:47:39.062Z,99198.10
2023-01-20T11:50:08.939Z,99200.44
2023-01-20T11:52:43.639Z,99195.80
2023-01-20T11:55:18.688Z,99200.52
2023-01-20T11:57:55.498Z,99202.27
2023-01-20T12:00:39.220Z,99199.80
2023-01-20T12:03:24.674Z,99205.36
2023-01-20T12:05:55.148Z,99205.92
2023-01-20T12:08:48.419Z,99207.17
2023-01-20T12:11:32.480Z,99210.27
2023-01-20T12:14:20.098Z,99212.02
2023-01-20T12:17:12.084Z,99210.34
2023-01-20T12:19:45.171Z,99208.77
2023-01-20T12:22:20.924Z,99208.23
2023-01-20T12:25:08.440Z,99206.88
2023-01-20T12:27:44.000Z,99214.02
2023-01-20T12:30:22.413Z,99213.54
2023-01-20T12:32:50.860Z,99211.64
2023-01-20T12:35:17.659Z,99219.00
2023-01-20T12:37:49.533Z,99220.91
2023-01-20T12:40:19.727Z,99226.91
2023-01-20T12:43:05.615Z,99228.38
2023-01-20T12:45:44.750Z,99231.86
2023-01-20T12:48:21.018Z,99231.36
2023-01-20T12:51:03.102Z,99232.87
2023-01-20T12:53:51.275Z,99231.80
2023-01-20T12:56:50.658Z,99235.66
2023-01-20T12:59:32.652Z,99232.02
2023-01-20T13:02:24.430Z,99233.54
2023-01-20T13:05:08.840Z,99231.20
2023-01-20T13:08:06.802Z,99233.27
2023-01-20T13:10:52.281Z,99238.33
2023-01-20T15:09:27.539Z,99262.38
2023-01-20T15:12:34.014Z,99260.19
2023-01-20T15:15:08.876Z,99257.23
2023-01-20T15:17:35.565Z,99257.57
2023-01-20T15:20:02.293Z,99257.08
2023-01-20T15:22:28.982Z,99254.77
2023-01-20T15:24:55.700Z,99252.16
2023-01-20T15:27:27.895Z,99253.45
2023-01-20T15:30:19.687Z,99250.06
2023-01-20T15:32:48.033Z,99252.70
2023-01-20T15:35:15.707Z,99254.46
2023-01-20T15:37:43.104Z,99255.88
2023-01-20T15:40:14.957Z,99257.16
2023-01-20T15:42:42.160Z,99262.58
2023-01-20T15:45:12.772Z,99262.73
2023-01-20T15:47:39.500Z,99261.27
2023-01-20T15:50:20.457Z,99261.20
2023-01-20T15:52:47.197Z,99265.91
2023-01-20T15:55:15.355Z,99265.32
2023-01-20T15:57:45.362Z,99265.36
2023-01-20T16:00:19.419Z,99268.17
2023-01-20T16:02:46.160Z,99268.59
2023-01-20T16:05:17.210Z,99269.89
2023-01-20T16:07:44.325Z,99270.98
2023-01-20T16:10:15.360Z,99268.23
2023-01-20T16:12:42.174Z,99272.48
2023-01-20T16:15:12.729Z,99275.11
2023-01-20T16:17:39.445Z,99277.30
2023-01-20T16:20:19.384Z,99268.98
2023-01-20T16:22:46.119Z,99273.67
2023-01-20T16:25:12.852Z,99277.93
2023-01-20T16:27:39.516Z,99275.27
2023-01-20T16:30:15.010Z,99278.42
2023-01-20T16:32:41.973Z,99272.52
2023-01-20T16:35:08.876Z,99266.95
2023-01-20T16:37:36.256Z,99275.69
2023-01-20T16:40:03.799Z,99278.39
2023-01-20T16:42:30.555Z,99279.51
2023-01-20T16:44:57.307Z,99283.23
2023-01-20T16:47:23.911Z,99282.88
2023-01-20T16:49:50.588Z,99281.42
2023-01-20T16:52:17.331Z,99286.44
2023-01-20T16:54:43.982Z,99289.75
2023-01-20T16:57:10.692Z,99286.70
2023-01-20T16:59:37.798Z,99287.52
2023-01-20T17:02:04.566Z,99289.83
2023-01-20T17:04:31.207Z,99292.35
2023-01-20T17:06:57.885Z,99296.30
2023-01-20T17:09:24.656Z,99301.03
2023-01-20T17:11:51.285Z,99301.51
2023-01-20T17:14:18.122Z,99302.02
2023-01-20T17:16:44.953Z,99295.80
2023-01-20T17:19:13.071Z,99296.55
2023-01-20T17:21:39.859Z,99297.08
2023-01-20T17:24:06.766Z,99296.13
2023-01-20T17:26:33.623Z,99301.15
2023-01-20T17:29:02.288Z,99305.98
2023-01-20T17:31:29.215Z,99310.71
2023-01-20T17:33:55.865Z,99311.61
2023-01-20T17:36:22.837Z,99313.58
2023-01-20T17:38:49.533Z,99310.59
2023-01-20T17:41:16.315Z,99312.11
2023-01-20T17:43:45.859Z,99310.86
2023-01-20T17:46:16.892Z,99311.70
2023-01-20T17:48:44.066Z,99307.71
2023-01-20T17:51:12.180Z,99310.19
2023-01-20T17:53:39.062Z,99310.46
2023-01-20T17:56:12.231Z,99311.00
2023-01-20T17:58:40.529Z,99310.43
2023-01-20T18:01:23.242Z,99310.64
2023-01-20T18:03:51.093Z,99309.94
2023-01-20T18:06:18.897Z,99311.93
2023-01-20T18:08:50.461Z,99311.64
2023-01-20T18:11:19.487Z,99305.38
2023-01-20T18:13:46.526Z,99311.30
2023-01-20T18:16:15.855Z,99317.48
2023-01-20T18:18:45.903Z,99323.98
2023-01-20T18:21:23.424Z,99317.73
2023-01-20T18:23:50.917Z,99327.45
2023-01-20T18:26:19.619Z,99328.23
2023-01-20T18:28:49.266Z,99335.56
2023-01-20T18:31:18.087Z,99339.55
2023-01-20T18:33:49.534Z,99338.34
2023-01-20T18:36:30.330Z,99341.80
2023-01-20T18:38:59.297Z,99341.50
2023-01-20T18:41:27.107Z,99345.30
2023-01-20T18:43:53.815Z,99347.69
2023-01-20T18:46:20.765Z,99342.71
2023-01-20T18:48:47.640Z,99339.65
2023-01-20T18:51:15.249Z,99343.16
2023-01-20T18:53:44.869Z,99350.89
2023-01-20T18:56:13.010Z,99352.40
2023-01-20T18:58:41.520Z,99351.40
2023-01-20T19:01:10.212Z,99350.39
2023-01-20T19:03:37.990Z,99352.90
2023-01-20T19:06:05.955Z,99354.20
2023-01-20T19:08:32.987Z,99357.91
2023-01-20T19:11:08.936Z,99356.77
2023-01-20T19:13:36.019Z,99360.70
2023-01-20T19:16:02.978Z,99364.45
2023-01-20T19:18:29.762Z,99361.20
2023-01-20T19:20:56.415Z,99370.44
2023-01-20T19:23:23.417Z,99371.73
2023-01-20T19:25:59.622Z,99369.11
2023-01-20T19:28:26.393Z,99368.15
2023-01-20T19:30:53.358Z,99366.33
2023-01-20T19:33:20.311Z,99367.86
2023-01-20T19:35:47.106Z,99373.73
2023-01-20T19:38:13.797Z,99375.52
2023-01-20T19:40:40.689Z,99378.77
2023-01-20T19:43:07.404Z,99378.14
2023-01-20T19:45:45.284Z,99389.70
2023-01-20T19:48:20.683Z,99393.49
2023-01-20T19:50:47.719Z,99390.91
2023-01-20T19:53:14.838Z,99394.95
2023-01-20T19:55:41.762Z,99396.32
2023-01-20T19:58:08.528Z,99394.27
2023-01-20T20:00:35.446Z,99395.43
2023-01-20T20:03:04.542Z,99400.27
2023-01-20T20:05:32.687Z,99399.29
2023-01-20T20:07:59.738Z,99409.83
2023-01-20T20:10:26.557Z,99410.44
2023-01-20T20:12:54.422Z,99412.61
2023-01-20T20:15:21.325Z,99414.04
2023-01-20T20:17:48.022Z,99417.09
2023-01-20T20:20:15.022Z,99416.73
2023-01-20T20:22:42.403Z,99419.02
2023-01-20T20:25:11.693Z,99417.48
2023-01-20T20:27:38.542Z,99421.15
2023-01-20T20:30:07.035Z,99425.27
2023-01-20T20:32:34.363Z,99432.96
2023-01-20T20:35:01.124Z,99431.21
2023-01-20T20:37:34.263Z,99430.86
2023-01-20T20:40:01.163Z,99438.05
2023-01-20T20:42:28.024Z,99434.40
2023-01-20T20:44:54.956Z,99434.01
2023-01-20T20:47:21.895Z,99435.55
2023-01-20T20:49:48.705Z,99439.05
2023-01-20T20:52:15.413Z,99439.09
2023-01-20T20:54:42.235Z,99442.51
2023-01-20T20:57:09.027Z,99443.60
2023-01-20T20:59:35.706Z,99449.38
2023-01-20T21:02:02.533Z,99452.64
2023-01-20T21:04:30.659Z,99455.26
2023-01-20T21:06:57.548Z,99455.42
2023-01-20T21:09:24.680Z,99465.64
2023-01-20T21:11:51.495Z,99465.91
2023-01-20T21:14:21.321Z,99462.19
2023-01-20T21:16:48.762Z,99469.89
2023-01-20T21:19:15.813Z,99473.66
2023-01-20T21:21:42.558Z,99473.73
2023-01-20T21:24:10.866Z,99475.02
2023-01-20T21:26:37.584Z,99476.27
2023-01-20T21:29:04.326Z,99474.98
2023-01-20T21:31:34.645Z,99477.08
2023-01-20T21:34:01.704Z,99472.49
2023-01-20T21:36:28.573Z,99476.42
2023-01-20T21:38:55.277Z,99478.08
2023-01-20T21:41:22.007Z,99477.08
2023-01-20T21:44:07.645Z,99480.09
2023-01-20T21:46:39.065Z,99476.45
2023-01-20T21:49:25.404Z,99473.34
2023-01-20T21:52:10.689Z,99474.99
2023-01-20T21:54:39.791Z,99473.29
2023-01-20T21:57:06.862Z,99476.04
2023-01-20T21:59:33.637Z,99483.42
2023-01-20T22:02:00.381Z,99481.72
